Time;durP1;ratioP1;P1;durP2;ratioP2;P2;SDS_P1;SDS_P2;PMS_P1;PMS_P2;Temp;Humidity;BMP_temperature;BMP_pressure;BME280_temperature;BME280_humidity;BME280_pressure;Samples;Min_cycle;Max_cycle;Signal;HPM_P1;HPM_P2
2023/11/29 00:01:06;;;;;;;15.57;7.23;;;;;;;;;;5011590;28;20276;-86
2023/11/29 00:03:32;;;;;;;10.43;6.90;;;;;;;;;;5017959;28;20609;-89
2023/11/29 00:05:58;;;;;;;13.00;7.00;;;;;;;;;;5017902;28;20176;-87
2023/11/29 00:08:24;;;;;;;17.30;6.97;;;;;;;;;;5017953;28;20034;-91
2023/11/29 00:10:50;;;;;;;12.17;7.03;;;;;;;;;;5036533;28;20260;-84
2023/11/29 00:13:19;;;;;;;12.60;6.23;;;;;;;;;;5018431;28;20263;-82
2023/11/29 00:15:46;;;;;;;11.83;6.87;;;;;;;;;;5007355;28;20355;-89
2023/11/29 00:18:12;;;;;;;14.57;7.17;;;;;;;;;;5017846;28;20280;-82
2023/11/29 00:20:38;;;;;;;12.57;6.97;;;;;;;;;;5031402;28;20276;-84
2023/11/29 00:23:04;;;;;;;11.57;6.33;;;;;;;;;;5008912;28;20269;-81
2023/11/29 00:25:30;;;;;;;11.07;7.10;;;;;;;;;;5014904;28;20034;-82
2023/11/29 00:27:56;;;;;;;10.57;6.50;;;;;;;;;;5028773;28;20341;-83
2023/11/29 00:30:22;;;;;;;13.70;7.30;;;;;;;;;;5027760;28;20045;-85
2023/11/29 00:32:48;;;;;;;11.27;6.70;;;;;;;;;;5013351;28;20033;-84
2023/11/29 00:35:14;;;;;;;10.10;5.80;;;;;;;;;;5015828;28;20322;-83
2023/11/29 00:37:40;;;;;;;11.93;6.63;;;;;;;;;;5015481;28;20040;-84
2023/11/29 00:40:07;;;;;;;13.03;7.07;;;;;;;;;;5010630;28;20033;-83
2023/11/29 00:42:33;;;;;;;12.60;7.50;;;;;;;;;;5015883;28;21891;-85
2023/11/29 00:44:59;;;;;;;16.53;7.10;;;;;;;;;;5009322;28;20748;-85
2023/11/29 00:47:25;;;;;;;13.47;7.67;;;;;;;;;;5015218;28;20025;-86
2023/11/29 00:49:51;;;;;;;12.97;7.20;;;;;;;;;;5015232;28;20116;-84
2023/11/29 00:52:17;;;;;;;11.70;6.93;;;;;;;;;;5014960;28;20287;-80
2023/11/29 00:54:43;;;;;;;12.30;7.00;;;;;;;;;;5013448;28;20276;-84
2023/11/29 00:57:09;;;;;;;10.40;6.27;;;;;;;;;;5014690;28;20122;-85
2023/11/29 00:59:35;;;;;;;11.90;6.43;;;;;;;;;;5011949;28;20034;-86
2023/11/29 01:02:01;;;;;;;12.80;6.63;;;;;;;;;;5015873;28;20047;-86
2023/11/29 01:04:27;;;;;;;10.03;6.27;;;;;;;;;;5014112;28;20061;-83
2023/11/29 01:06:53;;;;;;;11.63;6.50;;;;;;;;;;5015595;28;20029;-83
2023/11/29 01:09:19;;;;;;;10.97;6.57;;;;;;;;;;5013856;28;20417;-84
2023/11/29 01:11:48;;;;;;;12.37;7.40;;;;;;;;;;5014766;28;20029;-83
2023/11/29 01:14:14;;;;;;;11.27;6.80;;;;;;;;;;5015950;28;20355;-83
2023/11/29 01:16:40;;;;;;;12.70;7.53;;;;;;;;;;5015434;28;20380;-82
2023/11/29 01:19:06;;;;;;;11.40;6.43;;;;;;;;;;5016455;28;20434;-87
2023/11/29 01:21:33;;;;;;;11.63;6.60;;;;;;;;;;5014717;28;20022;-82
2023/11/29 01:23:59;;;;;;;13.40;7.37;;;;;;;;;;5015514;28;20033;-84
2023/11/29 01:26:25;;;;;;;12.73;6.63;;;;;;;;;;5015501;28;20284;-84
2023/11/29 01:28:51;;;;;;;10.03;6.50;;;;;;;;;;5014802;28;20480;-84
2023/11/29 01:31:18;;;;;;;12.30;6.67;;;;;;;;;;5015644;28;20068;-86
2023/11/29 01:33:44;;;;;;;11.17;6.60;;;;;;;;;;5030899;28;20030;-85
2023/11/29 01:36:13;;;;;;;10.67;6.10;;;;;;;;;;5015412;28;20306;-84
2023/11/29 01:38:39;;;;;;;9.80;6.43;;;;;;;;;;5030235;28;20744;-81
2023/11/29 01:41:05;;;;;;;10.60;6.00;;;;;;;;;;5019250;28;20283;-84
2023/11/29 01:43:34;;;;;;;10.27;6.47;;;;;;;;;;5016988;28;20120;-82
2023/11/29 01:46:00;;;;;;;12.10;6.30;;;;;;;;;;5033009;28;20284;-83
2023/11/29 01:48:29;;;;;;;10.13;6.63;;;;;;;;;;5019436;28;20288;-84
2023/11/29 01:50:56;;;;;;;10.70;6.57;;;;;;;;;;5018279;28;20029;-81
2023/11/29 01:53:23;;;;;;;13.60;7.33;;;;;;;;;;5019607;28;20272;-83
2023/11/29 01:55:50;;;;;;;10.93;7.13;;;;;;;;;;5019078;28;20358;-83
2023/11/29 01:58:17;;;;;;;12.27;7.47;;;;;;;;;;5019405;28;20275;-82
2023/11/29 02:00:44;;;;;;;8.63;5.70;;;;;;;;;;5018253;28;20291;-83
2023/11/29 02:03:10;;;;;;;11.60;7.23;;;;;;;;;;5020308;28;20280;-84
2023/11/29 02:05:36;;;;;;;13.57;8.63;;;;;;;;;;5018475;28;20275;-82
2023/11/29 02:08:02;;;;;;;13.47;7.40;;;;;;;;;;5034424;28;20276;-82
2023/11/29 02:10:30;;;;;;;12.70;7.07;;;;;;;;;;5018896;28;20295;-84
2023/11/29 02:12:57;;;;;;;17.30;7.43;;;;;;;;;;5019465;28;20280;-83
2023/11/29 02:15:23;;;;;;;13.17;7.73;;;;;;;;;;5018884;28;20308;-83
2023/11/29 02:17:49;;;;;;;13.77;7.47;;;;;;;;;;5033518;28;20326;-85
2023/11/29 02:20:20;;;;;;;12.40;7.33;;;;;;;;;;5019045;28;20033;-84
2023/11/29 02:22:49;;;;;;;12.07;7.17;;;;;;;;;;5017928;28;20026;-83
2023/11/29 02:25:15;;;;;;;11.57;7.20;;;;;;;;;;5035003;28;20375;-84
2023/11/29 02:27:44;;;;;;;11.63;7.17;;;;;;;;;;5017948;28;20740;-82
2023/11/29 02:30:10;;;;;;;15.53;6.93;;;;;;;;;;5017966;28;20037;-80
2023/11/29 02:32:36;;;;;;;14.90;7.37;;;;;;;;;;5017886;28;20284;-82
2023/11/29 02:35:02;;;;;;;13.03;6.67;;;;;;;;;;5017302;28;20628;-84
2023/11/29 02:37:28;;;;;;;13.60;7.67;;;;;;;;;;5018033;28;20121;-83
2023/11/29 02:39:54;;;;;;;13.13;7.07;;;;;;;;;;5017481;28;20361;-85
2023/11/29 02:42:20;;;;;;;11.87;7.10;;;;;;;;;;5017229;28;20033;-83
2023/11/29 02:45:05;;;;;;;11.43;6.43;;;;;;;;;;5016355;28;20485;-88
2023/11/29 02:47:31;;;;;;;12.73;7.30;;;;;;;;;;5032084;28;20021;-82
2023/11/29 02:49:57;;;;;;;13.77;8.20;;;;;;;;;;5008882;28;20287;-87
2023/11/29 02:52:23;;;;;;;13.40;7.60;;;;;;;;;;5016722;28;20037;-85
2023/11/29 02:54:49;;;;;;;15.37;7.70;;;;;;;;;;5011390;28;20108;-84
2023/11/29 02:57:15;;;;;;;11.30;6.57;;;;;;;;;;5017568;28;20034;-87
2023/11/29 02:59:41;;;;;;;12.93;6.87;;;;;;;;;;5017822;28;20029;-84
2023/11/29 03:02:08;;;;;;;12.23;6.87;;;;;;;;;;5031099;28;20021;-88
2023/11/29 03:04:34;;;;;;;15.20;8.03;;;;;;;;;;5010456;28;20276;-86
2023/11/29 03:07:03;;;;;;;13.37;7.37;;;;;;;;;;5015447;28;20283;-83
2023/11/29 03:09:29;;;;;;;13.53;7.77;;;;;;;;;;5018085;28;20272;-86
2023/11/29 03:11:55;;;;;;;17.37;7.60;;;;;;;;;;5013032;28;20670;-81
2023/11/29 03:14:21;;;;;;;11.57;7.43;;;;;;;;;;5017150;28;20310;-84
2023/11/29 03:16:47;;;;;;;17.87;8.30;;;;;;;;;;5016962;28;20045;-84
2023/11/29 03:19:13;;;;;;;18.13;8.50;;;;;;;;;;5011760;28;20029;-84
2023/11/29 03:21:39;;;;;;;16.47;9.20;;;;;;;;;;5015030;28;20502;-89
2023/11/29 03:24:05;;;;;;;14.83;8.57;;;;;;;;;;5017425;28;20025;-86
2023/11/29 03:26:31;;;;;;;14.93;8.20;;;;;;;;;;5013580;28;20029;-87
2023/11/29 03:28:57;;;;;;;13.43;7.47;;;;;;;;;;5007236;28;20303;-84
2023/11/29 03:31:23;;;;;;;15.07;8.13;;;;;;;;;;5017002;28;20033;-85
2023/11/29 03:33:49;;;;;;;14.63;7.67;;;;;;;;;;5017195;28;20033;-87
2023/11/29 03:36:15;;;;;;;16.37;8.37;;;;;;;;;;5016327;28;20041;-85
2023/11/29 03:38:41;;;;;;;16.10;7.93;;;;;;;;;;5015212;28;20295;-82
2023/11/29 03:41:07;;;;;;;16.07;8.03;;;;;;;;;;5017470;28;20272;-85
2023/11/29 03:43:33;;;;;;;14.17;8.17;;;;;;;;;;5009580;28;20429;-84
2023/11/29 03:45:59;;;;;;;14.77;8.53;;;;;;;;;;5017027;28;20299;-84
2023/11/29 03:48:25;;;;;;;14.17;7.73;;;;;;;;;;5015377;28;20029;-85
2023/11/29 03:50:51;;;;;;;15.13;8.83;;;;;;;;;;5010094;28;20030;-84
2023/11/29 03:53:17;;;;;;;17.37;9.13;;;;;;;;;;5034398;28;20030;-84
2023/11/29 03:55:43;;;;;;;14.60;8.30;;;;;;;;;;5016904;28;20360;-82
2023/11/29 03:58:10;;;;;;;18.77;9.33;;;;;;;;;;5016670;28;20044;-81
2023/11/29 04:00:36;;;;;;;19.03;10.43;;;;;;;;;;5013595;28;20160;-85
2023/11/29 04:03:02;;;;;;;17.63;9.30;;;;;;;;;;5017091;28;20320;-83
2023/11/29 04:05:28;;;;;;;17.73;9.83;;;;;;;;;;5024474;28;20033;-83
2023/11/29 04:07:54;;;;;;;20.33;11.40;;;;;;;;;;5016086;28;20104;-85
2023/11/29 04:10:20;;;;;;;18.53;10.43;;;;;;;;;;5016895;28;20628;-84
2023/11/29 04:12:46;;;;;;;16.23;8.97;;;;;;;;;;5030364;28;20275;-83
2023/11/29 04:15:12;;;;;;;17.50;10.53;;;;;;;;;;5012059;28;20061;-84
2023/11/29 04:17:40;;;;;;;22.53;10.50;;;;;;;;;;5016000;28;20033;-83
2023/11/29 04:20:06;;;;;;;18.90;10.47;;;;;;;;;;5015453;28;20025;-81
2023/11/29 04:22:32;;;;;;;19.83;10.27;;;;;;;;;;5028160;28;20282;-86
2023/11/29 04:24:58;;;;;;;15.83;9.50;;;;;;;;;;5017143;28;20300;-85
2023/11/29 04:27:24;;;;;;;18.70;10.07;;;;;;;;;;5013301;28;20319;-81
2023/11/29 04:29:50;;;;;;;19.30;9.87;;;;;;;;;;5026605;28;20021;-85
2023/11/29 04:32:16;;;;;;;18.50;10.03;;;;;;;;;;5016964;28;20033;-81
2023/11/29 04:34:42;;;;;;;18.47;10.27;;;;;;;;;;5017017;28;20064;-84
2023/11/29 04:37:08;;;;;;;18.10;9.33;;;;;;;;;;5017544;28;20029;-85
2023/11/29 04:39:34;;;;;;;15.13;9.47;;;;;;;;;;5017992;28;20280;-83
2023/11/29 04:42:00;;;;;;;17.07;9.17;;;;;;;;;;5018088;28;20025;-83
2023/11/29 04:44:26;;;;;;;20.03;10.10;;;;;;;;;;5038901;28;20279;-82
2023/11/29 04:46:52;;;;;;;22.53;10.53;;;;;;;;;;5036894;28;20030;-82
2023/11/29 04:49:18;;;;;;;16.63;8.67;;;;;;;;;;5035770;28;20033;-83
2023/11/29 04:51:44;;;;;;;18.80;10.27;;;;;;;;;;5021086;28;20108;-84
2023/11/29 04:54:12;;;;;;;17.37;9.37;;;;;;;;;;5016445;28;20060;-83
2023/11/29 04:56:38;;;;;;;17.43;9.00;;;;;;;;;;5013940;28;20061;-82
2023/11/29 04:59:05;;;;;;;17.67;9.70;;;;;;;;;;5010024;28;20605;-82
2023/11/29 05:01:31;;;;;;;17.60;9.13;;;;;;;;;;5016505;28;20083;-82
2023/11/29 05:03:57;;;;;;;18.87;9.70;;;;;;;;;;5015904;28;20033;-82
2023/11/29 05:06:25;;;;;;;15.03;9.33;;;;;;;;;;5018853;28;20334;-82
2023/11/29 05:08:53;;;;;;;17.23;9.20;;;;;;;;;;5018356;28;20445;-82
2023/11/29 05:11:19;;;;;;;18.20;9.60;;;;;;;;;;5019480;28;20104;-82
2023/11/29 05:13:45;;;;;;;14.60;9.97;;;;;;;;;;5013171;28;20323;-82
2023/11/29 05:16:11;;;;;;;16.80;9.50;;;;;;;;;;5015973;28;20385;-82
2023/11/29 05:18:37;;;;;;;19.80;9.00;;;;;;;;;;5014104;28;20277;-83
2023/11/29 05:21:03;;;;;;;18.43;8.33;;;;;;;;;;5003962;28;20276;-87
2023/11/29 05:23:29;;;;;;;16.23;9.33;;;;;;;;;;5015891;28;20067;-84
2023/11/29 05:25:58;;;;;;;21.57;8.73;;;;;;;;;;5012578;28;20021;-84
2023/11/29 05:28:27;;;;;;;23.50;10.67;;;;;;;;;;5021477;28;20124;-83
2023/11/29 05:30:53;;;;;;;17.43;9.30;;;;;;;;;;5020434;28;20279;-81
2023/11/29 05:33:25;;;;;;;16.77;8.87;;;;;;;;;;5019022;28;20330;-83
2023/11/29 05:35:53;;;;;;;17.37;8.63;;;;;;;;;;5010985;28;20300;-82
2023/11/29 05:38:19;;;;;;;20.17;9.80;;;;;;;;;;5015059;28;20321;-81
2023/11/29 05:40:45;;;;;;;15.83;8.40;;;;;;;;;;5015583;28;20353;-83
2023/11/29 05:43:11;;;;;;;17.60;9.53;;;;;;;;;;5019840;28;20260;-84
2023/11/29 05:45:37;;;;;;;17.00;9.33;;;;;;;;;;5018847;28;20611;-82
2023/11/29 05:48:05;;;;;;;21.07;10.07;;;;;;;;;;5018364;28;20268;-84
2023/11/29 05:50:31;;;;;;;18.57;9.10;;;;;;;;;;5019142;28;20030;-84
2023/11/29 05:53:00;;;;;;;25.40;11.70;;;;;;;;;;5020331;28;20291;-81
2023/11/29 05:55:27;;;;;;;20.10;10.07;;;;;;;;;;5012154;28;20303;-81
2023/11/29 05:57:53;;;;;;;18.63;9.27;;;;;;;;;;5018912;28;20104;-82
2023/11/29 06:00:19;;;;;;;21.70;10.67;;;;;;;;;;5020272;28;20683;-82
2023/11/29 06:02:47;;;;;;;25.90;10.03;;;;;;;;;;5021114;28;20334;-85
2023/11/29 06:05:15;;;;;;;22.40;9.73;;;;;;;;;;5017261;28;20335;-84
2023/11/29 06:07:41;;;;;;;20.97;9.63;;;;;;;;;;5016667;28;20284;-82
2023/11/29 06:10:08;;;;;;;20.80;10.20;;;;;;;;;;5036614;28;20256;-82
2023/11/29 06:12:34;;;;;;;22.57;10.43;;;;;;;;;;5035131;28;20033;-84
2023/11/29 06:15:04;;;;;;;22.07;10.80;;;;;;;;;;5017839;28;20735;-84
2023/11/29 06:17:31;;;;;;;15.63;8.70;;;;;;;;;;5005316;28;20300;-86
2023/11/29 06:19:57;;;;;;;17.90;8.10;;;;;;;;;;5015321;28;20027;-82
2023/11/29 06:22:23;;;;;;;17.60;8.83;;;;;;;;;;5012542;28;20112;-83
2023/11/29 06:24:52;;;;;;;14.50;7.70;;;;;;;;;;5004279;28;20022;-86
2023/11/29 06:27:20;;;;;;;17.70;8.87;;;;;;;;;;5034297;28;20140;-81
2023/11/29 06:29:48;;;;;;;18.47;8.17;;;;;;;;;;5012209;28;20033;-82
2023/11/29 06:32:14;;;;;;;16.83;8.30;;;;;;;;;;5015846;28;20280;-83
2023/11/29 06:34:40;;;;;;;17.50;9.00;;;;;;;;;;5014662;28;20271;-86
2023/11/29 06:37:09;;;;;;;21.40;8.70;;;;;;;;;;5016892;28;20021;-86
2023/11/29 06:39:35;;;;;;;16.97;8.97;;;;;;;;;;5017765;28;20309;-83
2023/11/29 06:42:01;;;;;;;18.67;9.37;;;;;;;;;;5016407;28;20035;-83
2023/11/29 06:44:29;;;;;;;15.83;7.77;;;;;;;;;;4978559;28;1108944;-81
2023/11/29 06:46:57;;;;;;;22.87;9.60;;;;;;;;;;5018702;28;20033;-81
2023/11/29 06:49:25;;;;;;;17.37;9.40;;;;;;;;;;5027934;28;20069;-81
2023/11/29 06:51:52;;;;;;;18.10;9.30;;;;;;;;;;5018108;28;20280;-84
2023/11/29 06:54:18;;;;;;;17.00;8.37;;;;;;;;;;5017012;28;20030;-82
2023/11/29 06:56:44;;;;;;;17.17;9.10;;;;;;;;;;5017571;28;20401;-82
2023/11/29 06:59:15;;;;;;;18.07;9.13;;;;;;;;;;5015839;28;20029;-83
2023/11/29 07:01:43;;;;;;;18.00;9.17;;;;;;;;;;5017363;28;20337;-81
2023/11/29 07:04:09;;;;;;;20.07;9.43;;;;;;;;;;5017351;28;20029;-82
2023/11/29 07:06:39;;;;;;;16.37;9.13;;;;;;;;;;5018260;28;20279;-79
2023/11/29 07:09:06;;;;;;;15.13;8.40;;;;;;;;;;5017640;28;20116;-83
2023/11/29 07:11:34;;;;;;;17.70;9.53;;;;;;;;;;5034765;28;20036;-81
2023/11/29 07:14:00;;;;;;;21.30;10.53;;;;;;;;;;5017647;28;20276;-82
2023/11/29 07:16:26;;;;;;;22.83;10.33;;;;;;;;;;5017438;28;21101;-82
2023/11/29 07:18:52;;;;;;;23.97;10.93;;;;;;;;;;5034243;28;20264;-81
2023/11/29 07:21:19;;;;;;;19.03;10.40;;;;;;;;;;5015245;28;20566;-83
2023/11/29 07:23:45;;;;;;;20.17;9.70;;;;;;;;;;5017245;28;20091;-84
2023/11/29 07:26:13;;;;;;;21.03;10.60;;;;;;;;;;5018208;28;20729;-81
2023/11/29 07:28:40;;;;;;;20.10;10.43;;;;;;;;;;5016785;28;20469;-80
2023/11/29 07:31:09;;;;;;;19.50;10.03;;;;;;;;;;5015251;28;20279;-81
2023/11/29 07:33:36;;;;;;;19.03;10.53;;;;;;;;;;5013367;28;20627;-81
2023/11/29 07:36:06;;;;;;;34.70;11.20;;;;;;;;;;5034488;28;20064;-81
2023/11/29 07:38:32;;;;;;;18.23;9.83;;;;;;;;;;5017435;28;20314;-80
2023/11/29 07:40:58;;;;;;;23.50;11.50;;;;;;;;;;5017944;28;20315;-82
2023/11/29 07:43:24;;;;;;;20.40;10.73;;;;;;;;;;5035652;28;20354;-81
2023/11/29 07:45:50;;;;;;;23.33;11.43;;;;;;;;;;5017279;28;20030;-81
2023/11/29 07:48:16;;;;;;;23.97;11.23;;;;;;;;;;5017946;28;20028;-80
2023/11/29 07:50:42;;;;;;;19.37;10.30;;;;;;;;;;5015187;28;20036;-79
2023/11/29 07:53:08;;;;;;;18.90;10.13;;;;;;;;;;5032424;28;20034;-83
2023/11/29 07:55:35;;;;;;;17.93;10.43;;;;;;;;;;5017516;28;20087;-83
2023/11/29 07:58:01;;;;;;;19.10;10.00;;;;;;;;;;5032171;28;20040;-80
2023/11/29 08:00:27;;;;;;;20.40;9.43;;;;;;;;;;5016218;28;20033;-80
2023/11/29 08:02:53;;;;;;;20.60;9.97;;;;;;;;;;5016199;28;20021;-79
2023/11/29 08:05:24;;;;;;;18.13;9.80;;;;;;;;;;5032365;28;20087;-79
2023/11/29 08:07:52;;;;;;;17.97;10.27;;;;;;;;;;5032933;28;20884;-81
2023/11/29 08:10:18;;;;;;;21.40;10.20;;;;;;;;;;5016035;28;21505;-80
2023/11/29 08:12:46;;;;;;;21.03;9.70;;;;;;;;;;5015684;28;20505;-80
2023/11/29 08:15:14;;;;;;;20.10;10.83;;;;;;;;;;5014515;28;20029;-80
2023/11/29 08:17:41;;;;;;;17.13;9.80;;;;;;;;;;5016017;28;20030;-81
2023/11/29 08:20:07;;;;;;;19.17;10.13;;;;;;;;;;5015554;28;20021;-82
2023/11/29 08:22:33;;;;;;;21.87;10.63;;;;;;;;;;5015554;28;20036;-80
2023/11/29 08:25:00;;;;;;;21.63;11.30;;;;;;;;;;5032952;28;20061;-80
2023/11/29 08:27:25;;;;;;;23.57;10.83;;;;;;;;;;5015826;28;20033;-80
2023/11/29 08:29:54;;;;;;;29.17;11.13;;;;;;;;;;5034721;28;20464;-81
2023/11/29 08:32:23;;;;;;;22.13;11.57;;;;;;;;;;5031237;28;20194;-82
2023/11/29 08:34:49;;;;;;;22.70;11.83;;;;;;;;;;5011930;28;20049;-83
2023/11/29 08:37:16;;;;;;;21.27;10.80;;;;;;;;;;5016747;28;20026;-87
2023/11/29 08:39:42;;;;;;;20.17;10.43;;;;;;;;;;5016811;28;20029;-87
2023/11/29 08:42:13;;;;;;;16.73;10.63;;;;;;;;;;5015548;28;20470;-80
2023/11/29 08:44:42;;;;;;;22.03;11.60;;;;;;;;;;5017320;28;20044;-79
2023/11/29 08:47:08;;;;;;;19.47;10.37;;;;;;;;;;5016243;28;20048;-80
2023/11/29 08:49:34;;;;;;;20.03;10.70;;;;;;;;;;5013746;28;20452;-81
2023/11/29 08:52:00;;;;;;;25.37;10.93;;;;;;;;;;5031911;28;20037;-79
2023/11/29 08:54:26;;;;;;;18.47;10.30;;;;;;;;;;5030891;28;20036;-82
2023/11/29 08:56:53;;;;;;;20.20;10.30;;;;;;;;;;5015775;28;20109;-82
2023/11/29 08:59:21;;;;;;;20.20;10.47;;;;;;;;;;5014014;28;20022;-82
2023/11/29 09:01:50;;;;;;;17.37;9.63;;;;;;;;;;5014940;28;20093;-81
2023/11/29 09:04:16;;;;;;;23.57;9.97;;;;;;;;;;5014276;28;20029;-81
2023/11/29 09:06:42;;;;;;;17.13;9.13;;;;;;;;;;5014960;28;20450;-82
2023/11/29 09:09:10;;;;;;;19.80;9.83;;;;;;;;;;5013992;28;20027;-81
2023/11/29 09:11:36;;;;;;;19.17;9.53;;;;;;;;;;5010774;28;20029;-82
2023/11/29 09:14:02;;;;;;;17.23;8.97;;;;;;;;;;5011405;28;20491;-81
2023/11/29 09:16:29;;;;;;;14.07;8.83;;;;;;;;;;5014666;28;20108;-80
2023/11/29 09:18:55;;;;;;;15.73;8.13;;;;;;;;;;5016028;28;20512;-80
2023/11/29 09:21:21;;;;;;;16.07;8.57;;;;;;;;;;5031881;28;20113;-79
2023/11/29 09:23:47;;;;;;;14.30;8.33;;;;;;;;;;5012538;28;20052;-78
2023/11/29 09:26:14;;;;;;;15.40;8.10;;;;;;;;;;5013763;28;20072;-78
2023/11/29 09:28:40;;;;;;;13.47;7.77;;;;;;;;;;5013069;28;20034;-80
2023/11/29 09:31:06;;;;;;;16.67;8.53;;;;;;;;;;5014020;28;20053;-80
2023/11/29 09:33:34;;;;;;;14.33;8.00;;;;;;;;;;5012777;28;20040;-80
2023/11/29 09:36:00;;;;;;;15.50;7.37;;;;;;;;;;5015029;28;20726;-81
2023/11/29 09:38:29;;;;;;;13.90;8.43;;;;;;;;;;5015234;28;20030;-80
2023/11/29 09:40:58;;;;;;;15.57;6.93;;;;;;;;;;5015855;28;20029;-80
2023/11/29 09:43:24;;;;;;;13.00;7.90;;;;;;;;;;5032008;28;20061;-83
2023/11/29 09:45:54;;;;;;;11.23;7.47;;;;;;;;;;5031596;28;20140;-86
2023/11/29 09:48:20;;;;;;;15.13;8.10;;;;;;;;;;5016023;28;20454;-79
2023/11/29 09:50:46;;;;;;;15.80;7.30;;;;;;;;;;5029568;28;20066;-82
2023/11/29 09:53:12;;;;;;;14.73;7.73;;;;;;;;;;5013805;28;20026;-82
2023/11/29 09:55:39;;;;;;;10.40;7.20;;;;;;;;;;5012954;28;20029;-82
2023/11/29 09:58:06;;;;;;;12.67;6.83;;;;;;;;;;5011267;28;20804;-79
2023/11/29 10:00:33;;;;;;;13.30;7.73;;;;;;;;;;5015387;28;20480;-83
2023/11/29 10:03:11;;;;;;;10.10;6.37;;;;;;;;;;5018809;28;20044;-82
2023/11/29 10:05:37;;;;;;;11.77;7.57;;;;;;;;;;5015385;28;20420;-81
2023/11/29 10:08:03;;;;;;;12.67;7.40;;;;;;;;;;5018786;28;20926;-81
2023/11/29 10:10:34;;;;;;;10.27;6.30;;;;;;;;;;5017292;28;20128;-80
2023/11/29 10:13:00;;;;;;;15.93;7.93;;;;;;;;;;5015998;28;20033;-81
2023/11/29 10:15:26;;;;;;;11.23;7.67;;;;;;;;;;5019436;28;20030;-79
2023/11/29 10:17:55;;;;;;;12.37;6.30;;;;;;;;;;5013446;28;20029;-80
2023/11/29 10:20:24;;;;;;;11.23;7.07;;;;;;;;;;5032142;28;20025;-80
2023/11/29 10:22:50;;;;;;;12.13;6.97;;;;;;;;;;5017827;28;20473;-79
2023/11/29 10:25:19;;;;;;;21.63;7.30;;;;;;;;;;5018938;28;20021;-81
2023/11/29 10:27:45;;;;;;;11.63;6.73;;;;;;;;;;5018668;28;20044;-80
2023/11/29 10:30:12;;;;;;;9.70;6.60;;;;;;;;;;5018697;28;20767;-83
2023/11/29 10:32:39;;;;;;;12.13;7.03;;;;;;;;;;5019667;28;20087;-83
2023/11/29 10:35:07;;;;;;;15.67;6.50;;;;;;;;;;5020227;28;20150;-82
2023/11/29 10:37:34;;;;;;;10.63;6.40;;;;;;;;;;5013589;28;20065;-80
2023/11/29 10:40:03;;;;;;;11.90;6.20;;;;;;;;;;5019164;28;20040;-79
2023/11/29 10:42:29;;;;;;;12.10;6.03;;;;;;;;;;5039365;28;20034;-81
2023/11/29 10:44:56;;;;;;;9.97;6.10;;;;;;;;;;5016045;28;20091;-80
2023/11/29 10:47:35;;;;;;;10.33;6.43;;;;;;;;;;5033690;28;20128;-82
2023/11/29 10:50:03;;;;;;;12.60;6.90;;;;;;;;;;5018401;28;20029;-80
2023/11/29 10:52:29;;;;;;;9.37;6.47;;;;;;;;;;5024700;28;20053;-79
2023/11/29 10:54:55;;;;;;;11.33;5.83;;;;;;;;;;5018283;28;20029;-79
2023/11/29 10:57:30;;;;;;;11.67;6.07;;;;;;;;;;5025909;28;20052;-83
2023/11/29 11:00:06;;;;;;;13.37;6.80;;;;;;;;;;5024505;28;20026;-82
2023/11/29 11:02:32;;;;;;;13.53;6.13;;;;;;;;;;5020656;28;20352;-79
2023/11/29 11:05:05;;;;;;;11.63;6.60;;;;;;;;;;5023118;28;20575;-81
2023/11/29 11:07:44;;;;;;;7.72;5.88;;;;;;;;;;5015747;28;20030;-81
2023/11/29 11:10:14;;;;;;;9.97;6.20;;;;;;;;;;5015344;28;20037;-79
2023/11/29 11:12:40;;;;;;;13.70;5.80;;;;;;;;;;5038631;28;20029;-81
2023/11/29 11:15:15;;;;;;;10.93;5.47;;;;;;;;;;5019889;28;20030;-80
2023/11/29 11:17:41;;;;;;;7.80;5.73;;;;;;;;;;5029484;28;20063;-83
2023/11/29 11:20:07;;;;;;;9.90;5.37;;;;;;;;;;5017185;28;20397;-81
2023/11/29 11:22:40;;;;;;;12.93;5.80;;;;;;;;;;5026956;28;20438;-80
2023/11/29 11:25:07;;;;;;;11.43;5.40;;;;;;;;;;5039542;28;20021;-80
2023/11/29 11:27:39;;;;;;;13.57;5.50;;;;;;;;;;5038681;28;20030;-82
2023/11/29 11:30:09;;;;;;;10.45;6.28;;;;;;;;;;5040310;28;20343;-81
2023/11/29 11:32:39;;;;;;;10.23;6.47;;;;;;;;;;5029040;28;20040;-81
2023/11/29 11:37:44;;;;;;;11.00;5.50;;;;;;;;;;5033081;28;20424;-79
2023/11/29 11:40:14;;;;;;;8.87;5.10;;;;;;;;;;5037262;28;20476;-82
2023/11/29 11:42:42;;;;;;;9.63;5.73;;;;;;;;;;5020256;28;20107;-79
2023/11/29 11:45:08;;;;;;;11.90;5.60;;;;;;;;;;5020459;28;20595;-81
2023/11/29 11:47:35;;;;;;;8.50;5.47;;;;;;;;;;5027730;28;20025;-81
2023/11/29 11:50:01;;;;;;;10.03;4.73;;;;;;;;;;5023028;28;20049;-85
2023/11/29 11:52:27;;;;;;;10.97;5.90;;;;;;;;;;5035272;28;20081;-80
2023/11/29 11:54:53;;;;;;;12.53;5.73;;;;;;;;;;5022714;28;20025;-80
2023/11/29 11:57:19;;;;;;;14.17;5.93;;;;;;;;;;5017897;28;20034;-80
2023/11/29 11:59:45;;;;;;;11.83;6.80;;;;;;;;;;5010134;28;20017;-80
2023/11/29 12:02:11;;;;;;;9.90;4.97;;;;;;;;;;5015110;28;20092;-82
2023/11/29 12:04:37;;;;;;;8.40;5.17;;;;;;;;;;5018229;28;20032;-80
2023/11/29 12:07:04;;;;;;;10.07;5.43;;;;;;;;;;5034595;28;20025;-80
2023/11/29 12:09:31;;;;;;;7.70;5.13;;;;;;;;;;5020607;28;20498;-79
2023/11/29 12:12:07;;;;;;;8.23;4.93;;;;;;;;;;5019305;28;20048;-81
2023/11/29 12:14:33;;;;;;;9.13;5.10;;;;;;;;;;5019761;28;20034;-81
2023/11/29 12:16:59;;;;;;;12.30;6.33;;;;;;;;;;5016507;28;20030;-82
2023/11/29 12:19:25;;;;;;;10.23;5.43;;;;;;;;;;5030815;28;20477;-81
2023/11/29 12:21:51;;;;;;;13.93;5.73;;;;;;;;;;5012600;28;20026;-78
2023/11/29 12:24:17;;;;;;;9.70;5.83;;;;;;;;;;5032023;28;20026;-81
2023/11/29 12:26:46;;;;;;;8.63;5.30;;;;;;;;;;5015495;28;20574;-79
2023/11/29 12:29:15;;;;;;;19.00;7.07;;;;;;;;;;5014958;28;20033;-80
2023/11/29 12:31:44;;;;;;;7.87;5.70;;;;;;;;;;5028256;28;20033;-82
2023/11/29 12:34:10;;;;;;;9.20;5.73;;;;;;;;;;5011986;28;20042;-79
2023/11/29 12:36:36;;;;;;;8.80;5.53;;;;;;;;;;5014392;28;20033;-82
2023/11/29 12:39:05;;;;;;;12.10;5.73;;;;;;;;;;5014865;28;20061;-83
2023/11/29 12:41:31;;;;;;;10.97;5.50;;;;;;;;;;5014929;28;20076;-80
2023/11/29 12:43:57;;;;;;;10.47;5.93;;;;;;;;;;5014280;28;20037;-80
2023/11/29 12:46:23;;;;;;;10.83;7.07;;;;;;;;;;5014096;28;20033;-79
2023/11/29 12:48:50;;;;;;;7.60;5.77;;;;;;;;;;5016986;28;20350;-83
2023/11/29 12:51:16;;;;;;;11.87;6.33;;;;;;;;;;5016297;28;20048;-79
2023/11/29 12:53:44;;;;;;;9.43;5.90;;;;;;;;;;5032111;28;20033;-81
2023/11/29 12:56:10;;;;;;;14.43;6.33;;;;;;;;;;5015562;28;20034;-79
2023/11/29 12:58:38;;;;;;;13.40;5.90;;;;;;;;;;5016321;28;20100;-81
2023/11/29 13:01:07;;;;;;;9.70;6.37;;;;;;;;;;5026670;28;20033;-82
2023/11/29 13:03:43;;;;;;;8.83;5.30;;;;;;;;;;5012500;28;20032;-81
2023/11/29 13:06:24;;;;;;;11.03;5.90;;;;;;;;;;5009131;28;20130;-79
2023/11/29 13:08:50;;;;;;;10.57;6.63;;;;;;;;;;5031264;28;20029;-81
2023/11/29 13:11:16;;;;;;;9.90;6.87;;;;;;;;;;5012237;28;20112;-81
2023/11/29 13:13:44;;;;;;;11.93;6.93;;;;;;;;;;5011787;28;20033;-83
2023/11/29 13:16:11;;;;;;;13.57;7.73;;;;;;;;;;5014910;28;20053;-80
2023/11/29 13:18:40;;;;;;;12.90;7.60;;;;;;;;;;5014586;28;20029;-80
2023/11/29 13:21:26;;;;;;;;;;;;;;;;;;;;;
2023/11/29 13:24:18;;;;;;;11.48;7.47;;;;;;;;;;4948156;29;20349;-81
2023/11/29 13:30:23;;;;;;;11.40;7.63;;;;;;;;;;4950698;28;20074;-79
2023/11/29 13:32:49;;;;;;;15.37;8.10;;;;;;;;;;4948879;28;20039;-81
2023/11/29 13:35:20;;;;;;;16.33;8.53;;;;;;;;;;4951289;28;20038;-82
2023/11/29 13:37:46;;;;;;;11.97;8.00;;;;;;;;;;4949581;28;20056;-83
2023/11/29 13:40:12;;;;;;;13.90;7.83;;;;;;;;;;4946759;28;20031;-79
2023/11/29 13:42:39;;;;;;;12.77;7.73;;;;;;;;;;4951729;28;20095;-81
2023/11/29 13:45:09;;;;;;;11.20;7.40;;;;;;;;;;4952168;28;20039;-79
2023/11/29 13:47:36;;;;;;;14.53;8.33;;;;;;;;;;4952259;28;20119;-81
2023/11/29 13:50:05;;;;;;;12.33;8.70;;;;;;;;;;4952625;28;20031;-80
2023/11/29 13:52:33;;;;;;;12.40;7.53;;;;;;;;;;4952767;28;20057;-81
2023/11/29 13:55:02;;;;;;;11.27;7.43;;;;;;;;;;4994211;28;21694;-81
2023/11/29 13:57:28;;;;;;;13.30;8.20;;;;;;;;;;5018873;28;20041;-81
2023/11/29 13:59:54;;;;;;;10.57;7.77;;;;;;;;;;5017721;28;20087;-80
2023/11/29 14:02:20;;;;;;;14.93;8.43;;;;;;;;;;5035775;28;20351;-80
2023/11/29 14:04:46;;;;;;;13.20;7.87;;;;;;;;;;5018479;28;20033;-79
2023/11/29 14:07:12;;;;;;;13.20;7.87;;;;;;;;;;5018574;28;20045;-80
2023/11/29 14:09:38;;;;;;;14.70;7.87;;;;;;;;;;5019102;28;20473;-80
2023/11/29 14:12:07;;;;;;;11.60;7.43;;;;;;;;;;5031617;28;20041;-82
2023/11/29 14:14:33;;;;;;;13.03;8.20;;;;;;;;;;5018840;28;20033;-82
2023/11/29 14:17:01;;;;;;;12.53;7.97;;;;;;;;;;5017433;28;20109;-80
2023/11/29 14:19:27;;;;;;;15.77;7.67;;;;;;;;;;5035248;28;20032;-83
2023/11/29 14:21:56;;;;;;;12.57;8.17;;;;;;;;;;5028041;28;20893;-82
2023/11/29 14:24:29;;;;;;;13.30;8.13;;;;;;;;;;5027675;28;20025;-81
2023/11/29 14:26:55;;;;;;;12.70;8.57;;;;;;;;;;5016839;28;20037;-78
2023/11/29 14:29:24;;;;;;;13.33;8.70;;;;;;;;;;5033059;28;20125;-81
2023/11/29 14:31:55;;;;;;;15.57;8.33;;;;;;;;;;5023646;28;20091;-81
2023/11/29 14:34:23;;;;;;;15.60;9.73;;;;;;;;;;5019813;28;20052;-81